Hlavní strana
METAR-TAF:

METAR-TAF

Letiště :

Letiště Kodaň

Kodaň, Dánsko

zeměpisná šířka: 55-37N, zeměpisná délka: 012-39E, výška: 5 m

Aktuální stav počasí

Zpráva byla vytvořena před 16 minutami, v 20:20 UTC
Jižní vítr 17 kt
Teplota 7°C
Vlhkost vzduchu 81%
Tlak 1003 hPa
Viditelnost 10 km a více

METAR: EKCH 122020Z AUTO 17017KT 9999 BKN018/// BKN054/// 07/04 Q1003 NOSIG

Čas: 21:36 (20:36 UTC)

Předpověď počasí

Zpráva byla vytvořena před 3 hodinami a 22 minutami, v 17:14 UTC
Předpověď platná od 12 v 18 UTC do 13 v 18 UTC
Jižní vítr 12 kt
Viditelnost 10 km a více
Oblačno až skoro zataženo ve výšce 1800 ft
Dočasný
od 12 v 18 UTC do 12 v 19 UTC
Polojasno ve výšce 2000 ft, Vertikální cumulus.

TAF: EKCH 121714Z 1218/1318 18012KT 9999 BKN018 TEMPO 1218/1219 SCT020TCU

Stav a předpovědi počasí z více než 4 000 letišť (zprávy METAR a TAF).

Červené a žluté tečky na mapě představují dostupné meteorologické stanice.

Když kurzor umístíte na tečku, zobrazí se název stanice.

Pak kliknutím zobrazíte stav a předpověď počasí.

Chcete-li změnit mapu, kliknutím na zelené tlačítko se znaménkem +mapu přiblížíte, kliknutím na zelené tlačítko se znaménkem – mapu oddálíte a kliknutím na zelené šipky přejdete na sousední mapy.


METAR-TAF: